VLG1106 LEBL-LIRQ
Flight info
| Callsign | VLG1106 |
|---|---|
| Flight time | N/A |
| Altitude | 34000 |
| Route | AGENA M985 LUMAS DCT UNANA DCT STP DCT RAPED DCT PIGOS DCT EKSID DCT NOSTA DCT NOPMU DCT EGHIN DCT ANAKI DCT KALMO DCT BEROK |
| Aircraft | A319/M-SDE3FGHIRWY/LB1 |
Departure
| Time | 2026-05-06 14:52 |
|---|---|
| Airport | Josep Tarradellas Barcelona-El Prat Airport (LEBL) |
Arrival
| Time | N/A |
|---|---|
| Airport | Florence Airport, Peretola (LIRQ) |
| Time | Latitude | Longitude | Altitude | Speed | Heading |
|---|---|---|---|---|---|
| 2026-05-06 14:28 | 41.28839 | 2.08108 | 16 ft | 0 kts | 66° |
| 2026-05-06 14:40 | 41.28836 | 2.08099 | 16 ft | 2 kts | 63° |
| 2026-05-06 14:41 | 41.28830 | 2.08083 | 19 ft | 2 kts | 64° |
| 2026-05-06 14:41 | 41.28824 | 2.08067 | 17 ft | 2 kts | 69° |
| 2026-05-06 14:41 | 41.28821 | 2.08056 | 15 ft | 1 kts | 107° |
| 2026-05-06 14:41 | 41.28822 | 2.08048 | 16 ft | 1 kts | 142° |
| 2026-05-06 14:42 | 41.28826 | 2.08044 | 16 ft | 1 kts | 153° |
| 2026-05-06 14:42 | 41.28831 | 2.08041 | 15 ft | 1 kts | 155° |
| 2026-05-06 14:42 | 41.28835 | 2.08038 | 15 ft | 0 kts | 156° |
| 2026-05-06 14:46 | 41.28830 | 2.08041 | 17 ft | 3 kts | 156° |
| 2026-05-06 14:47 | 41.28818 | 2.08048 | 15 ft | 3 kts | 156° |
| 2026-05-06 14:47 | 41.28783 | 2.08069 | 15 ft | 7 kts | 156° |
| 2026-05-06 14:47 | 41.28742 | 2.08123 | 16 ft | 10 kts | 101° |
| 2026-05-06 14:47 | 41.28745 | 2.08219 | 18 ft | 11 kts | 129° |
| 2026-05-06 14:48 | 41.28717 | 2.08301 | 22 ft | 12 kts | 72° |
| 2026-05-06 14:48 | 41.28752 | 2.08410 | 23 ft | 14 kts | 65° |
| 2026-05-06 14:48 | 41.28800 | 2.08550 | 20 ft | 20 kts | 66° |
| 2026-05-06 14:48 | 41.28862 | 2.08732 | 20 ft | 23 kts | 65° |
| 2026-05-06 14:49 | 41.28929 | 2.08923 | 17 ft | 22 kts | 66° |
| 2026-05-06 14:49 | 41.28993 | 2.09114 | 20 ft | 24 kts | 67° |
| 2026-05-06 14:49 | 41.29064 | 2.09322 | 21 ft | 25 kts | 65° |
| 2026-05-06 14:49 | 41.29132 | 2.09520 | 19 ft | 21 kts | 65° |
| 2026-05-06 14:50 | 41.29196 | 2.09708 | 20 ft | 23 kts | 66° |
| 2026-05-06 14:50 | 41.29270 | 2.09915 | 15 ft | 27 kts | 56° |
| 2026-05-06 14:50 | 41.29319 | 2.10108 | 16 ft | 23 kts | 106° |
| 2026-05-06 14:50 | 41.29251 | 2.10297 | 12 ft | 20 kts | 148° |
| 2026-05-06 14:51 | 41.29184 | 2.10217 | 15 ft | 0 kts | 245° |
| 2026-05-06 14:51 | 41.29184 | 2.10215 | 15 ft | 0 kts | 245° |
| 2026-05-06 14:51 | 41.29182 | 2.10211 | 15 ft | 1 kts | 245° |
| 2026-05-06 14:51 | 41.29179 | 2.10200 | 13 ft | 5 kts | 245° |
| 2026-05-06 14:52 | 41.29038 | 2.09791 | 19 ft | 89 kts | 245° |
| 2026-05-06 14:52 | 41.28675 | 2.08764 | 46 ft | 149 kts | 243° |
| 2026-05-06 14:52 | 41.28212 | 2.07563 | 742 ft | 144 kts | 230° |
| 2026-05-06 14:52 | 41.27389 | 2.06889 | 1396 ft | 145 kts | 191° |
| 2026-05-06 14:53 | 41.26368 | 2.06743 | 1960 ft | 155 kts | 186° |
| 2026-05-06 14:53 | 41.25213 | 2.06633 | 2396 ft | 178 kts | 186° |
| 2026-05-06 14:53 | 41.23905 | 2.06496 | 2794 ft | 201 kts | 187° |
| 2026-05-06 14:53 | 41.22445 | 2.06322 | 3289 ft | 217 kts | 188° |
| 2026-05-06 14:54 | 41.20917 | 2.06124 | 3980 ft | 224 kts | 188° |
| 2026-05-06 14:54 | 41.19358 | 2.05908 | 4861 ft | 227 kts | 189° |
| 2026-05-06 14:54 | 41.17780 | 2.05680 | 5804 ft | 229 kts | 189° |
| 2026-05-06 14:54 | 41.16144 | 2.05524 | 6542 ft | 244 kts | 185° |
| 2026-05-06 14:55 | 41.14419 | 2.05442 | 7379 ft | 251 kts | 184° |
| 2026-05-06 14:55 | 41.12662 | 2.05380 | 8341 ft | 254 kts | 184° |
| 2026-05-06 14:55 | 41.10885 | 2.05320 | 9333 ft | 257 kts | 184° |
| 2026-05-06 14:55 | 41.09085 | 2.05255 | 10273 ft | 260 kts | 184° |
| 2026-05-06 14:56 | 41.07241 | 2.05182 | 11172 ft | 264 kts | 185° |
| 2026-05-06 14:56 | 41.05393 | 2.05101 | 12050 ft | 267 kts | 185° |
| 2026-05-06 14:56 | 41.03520 | 2.05014 | 12940 ft | 271 kts | 185° |
| 2026-05-06 14:56 | 41.01567 | 2.05069 | 13408 ft | 295 kts | 173° |
| 2026-05-06 14:57 | 40.99570 | 2.06002 | 13869 ft | 318 kts | 152° |
| 2026-05-06 14:57 | 40.97826 | 2.07982 | 14119 ft | 346 kts | 130° |
| 2026-05-06 14:57 | 40.96383 | 2.10667 | 14358 ft | 369 kts | 126° |
| 2026-05-06 14:57 | 40.94878 | 2.13521 | 14737 ft | 384 kts | 127° |
| 2026-05-06 14:58 | 40.93330 | 2.16437 | 15369 ft | 390 kts | 128° |
| 2026-05-06 14:58 | 40.91755 | 2.19385 | 16037 ft | 396 kts | 128° |
| 2026-05-06 14:58 | 40.90165 | 2.22385 | 16712 ft | 402 kts | 126° |
| 2026-05-06 14:58 | 40.88965 | 2.25768 | 17351 ft | 414 kts | 110° |
| 2026-05-06 14:59 | 40.88523 | 2.29567 | 17988 ft | 426 kts | 92° |
| 2026-05-06 14:59 | 40.88964 | 2.33473 | 18553 ft | 435 kts | 72° |
| 2026-05-06 14:59 | 40.90280 | 2.37071 | 19120 ft | 438 kts | 54° |
| 2026-05-06 14:59 | 40.92124 | 2.40300 | 19710 ft | 442 kts | 50° |
| 2026-05-06 15:00 | 40.94009 | 2.43522 | 20294 ft | 446 kts | 50° |
| 2026-05-06 15:00 | 40.95922 | 2.46785 | 20861 ft | 450 kts | 51° |
| 2026-05-06 15:00 | 40.97876 | 2.50121 | 21404 ft | 455 kts | 51° |
| 2026-05-06 15:00 | 40.99818 | 2.53451 | 21935 ft | 459 kts | 51° |
| 2026-05-06 15:01 | 41.01777 | 2.56819 | 22442 ft | 464 kts | 51° |
| 2026-05-06 15:01 | 41.03751 | 2.60215 | 22970 ft | 468 kts | 51° |
| 2026-05-06 15:01 | 41.05743 | 2.63647 | 23476 ft | 472 kts | 51° |
| 2026-05-06 15:01 | 41.07749 | 2.67114 | 23902 ft | 476 kts | 51° |
| 2026-05-06 15:02 | 41.09766 | 2.70609 | 24314 ft | 479 kts | 51° |
| 2026-05-06 15:02 | 41.11798 | 2.74131 | 24712 ft | 483 kts | 51° |
| 2026-05-06 15:02 | 41.13853 | 2.77691 | 25115 ft | 487 kts | 51° |
| 2026-05-06 15:02 | 41.15916 | 2.81260 | 25510 ft | 490 kts | 51° |
| 2026-05-06 15:03 | 41.18001 | 2.84866 | 25914 ft | 493 kts | 51° |
| 2026-05-06 15:03 | 41.20093 | 2.88492 | 26309 ft | 497 kts | 51° |
| 2026-05-06 15:03 | 41.22195 | 2.92147 | 26696 ft | 500 kts | 51° |
| 2026-05-06 15:03 | 41.24311 | 2.95832 | 27078 ft | 503 kts | 51° |
| 2026-05-06 15:04 | 41.26442 | 2.99542 | 27450 ft | 507 kts | 51° |
| 2026-05-06 15:04 | 41.28587 | 3.03277 | 27818 ft | 510 kts | 51° |
| 2026-05-06 15:04 | 41.30742 | 3.07040 | 28176 ft | 513 kts | 51° |
| 2026-05-06 15:04 | 41.32905 | 3.10826 | 28529 ft | 516 kts | 51° |
| 2026-05-06 15:05 | 41.35081 | 3.14641 | 28864 ft | 519 kts | 51° |
| 2026-05-06 15:05 | 41.37275 | 3.18489 | 29199 ft | 522 kts | 52° |
| 2026-05-06 15:05 | 41.39476 | 3.22355 | 29539 ft | 525 kts | 52° |
| 2026-05-06 15:05 | 41.41677 | 3.26233 | 29894 ft | 527 kts | 52° |
| 2026-05-06 15:06 | 41.43883 | 3.30126 | 30311 ft | 526 kts | 52° |
| 2026-05-06 15:06 | 41.46085 | 3.34018 | 30729 ft | 525 kts | 52° |
| 2026-05-06 15:06 | 41.48284 | 3.37900 | 31158 ft | 524 kts | 52° |
| 2026-05-06 15:06 | 41.50485 | 3.41787 | 31586 ft | 523 kts | 52° |
| 2026-05-06 15:07 | 41.52594 | 3.45814 | 32018 ft | 523 kts | 59° |
| 2026-05-06 15:07 | 41.54245 | 3.50129 | 32442 ft | 522 kts | 68° |
| 2026-05-06 15:07 | 41.55422 | 3.54698 | 32871 ft | 519 kts | 77° |
| 2026-05-06 15:07 | 41.56211 | 3.59392 | 33304 ft | 518 kts | 81° |
| 2026-05-06 15:08 | 41.56969 | 3.64092 | 33738 ft | 517 kts | 80° |
| 2026-05-06 15:08 | 41.57738 | 3.68781 | 33933 ft | 517 kts | 80° |
| 2026-05-06 15:08 | 41.58512 | 3.73462 | 33960 ft | 516 kts | 80° |
| 2026-05-06 15:09 | 41.60052 | 3.82802 | 33961 ft | 515 kts | 80° |
| 2026-05-06 15:09 | 41.61572 | 3.92138 | 33961 ft | 514 kts | 81° |
| 2026-05-06 15:10 | 41.63075 | 4.01482 | 33963 ft | 514 kts | 81° |
| 2026-05-06 15:10 | 41.64562 | 4.10810 | 33960 ft | 513 kts | 81° |
| 2026-05-06 15:11 | 41.66039 | 4.20153 | 33953 ft | 513 kts | 81° |
| 2026-05-06 15:11 | 41.67513 | 4.29484 | 33955 ft | 513 kts | 81° |
| 2026-05-06 15:12 | 41.68993 | 4.38818 | 33955 ft | 513 kts | 81° |
| 2026-05-06 15:12 | 41.70472 | 4.48236 | 33956 ft | 513 kts | 81° |
| 2026-05-06 15:13 | 41.71936 | 4.57579 | 33953 ft | 514 kts | 79° |
| 2026-05-06 15:13 | 41.74558 | 4.66492 | 33956 ft | 518 kts | 60° |
| 2026-05-06 15:14 | 41.78960 | 4.74080 | 33952 ft | 517 kts | 43° |
| 2026-05-06 15:14 | 41.84097 | 4.80832 | 33948 ft | 517 kts | 43° |
| 2026-05-06 15:15 | 41.88341 | 4.86461 | 33944 ft | 517 kts | 43° |
| 2026-05-06 15:15 | 41.93450 | 4.93261 | 33947 ft | 517 kts | 43° |
| 2026-05-06 15:16 | 41.98596 | 5.00113 | 33947 ft | 517 kts | 43° |
| 2026-05-06 15:16 | 42.03718 | 5.06926 | 33945 ft | 518 kts | 43° |
| 2026-05-06 15:17 | 42.08830 | 5.13749 | 33944 ft | 518 kts | 44° |
| 2026-05-06 15:17 | 42.13939 | 5.20601 | 33947 ft | 519 kts | 44° |
| 2026-05-06 15:18 | 42.19056 | 5.27465 | 33945 ft | 519 kts | 44° |
| 2026-05-06 15:18 | 42.24172 | 5.34354 | 33941 ft | 519 kts | 44° |
| 2026-05-06 15:19 | 42.29285 | 5.41249 | 33940 ft | 520 kts | 44° |
| 2026-05-06 15:19 | 42.34397 | 5.48159 | 33938 ft | 520 kts | 44° |
| 2026-05-06 15:20 | 42.39512 | 5.55093 | 33936 ft | 521 kts | 44° |
| 2026-05-06 15:20 | 42.44626 | 5.62046 | 33936 ft | 521 kts | 44° |
| 2026-05-06 15:21 | 42.49733 | 5.69005 | 33934 ft | 521 kts | 44° |
| 2026-05-06 15:21 | 42.54869 | 5.76018 | 33932 ft | 521 kts | 45° |
| 2026-05-06 15:22 | 42.59981 | 5.83004 | 33933 ft | 521 kts | 45° |
| 2026-05-06 15:22 | 42.65073 | 5.90000 | 33928 ft | 521 kts | 45° |
| 2026-05-06 15:23 | 42.70171 | 5.97022 | 33924 ft | 522 kts | 45° |
| 2026-05-06 15:23 | 42.75274 | 6.04045 | 33922 ft | 522 kts | 45° |
| 2026-05-06 15:24 | 42.80363 | 6.11074 | 33924 ft | 522 kts | 45° |
| 2026-05-06 15:24 | 42.85465 | 6.18093 | 33919 ft | 521 kts | 41° |
| 2026-05-06 15:25 | 42.91006 | 6.24479 | 33912 ft | 521 kts | 39° |
| 2026-05-06 15:25 | 42.96568 | 6.30843 | 33907 ft | 521 kts | 39° |
| 2026-05-06 15:26 | 43.02118 | 6.37230 | 33897 ft | 522 kts | 39° |
| 2026-05-06 15:26 | 43.07662 | 6.43636 | 33886 ft | 522 kts | 39° |
| 2026-05-06 15:27 | 43.13245 | 6.50087 | 33880 ft | 522 kts | 39° |
| 2026-05-06 15:27 | 43.18798 | 6.56511 | 33871 ft | 522 kts | 39° |
| 2026-05-06 15:28 | 43.23806 | 6.63679 | 33866 ft | 522 kts | 55° |
| 2026-05-06 15:28 | 43.28058 | 6.71754 | 33863 ft | 522 kts | 55° |
| 2026-05-06 15:29 | 43.32326 | 6.79814 | 33860 ft | 522 kts | 55° |
| 2026-05-06 15:29 | 43.36585 | 6.87888 | 33856 ft | 522 kts | 55° |
| 2026-05-06 15:30 | 43.40841 | 6.95982 | 33853 ft | 522 kts | 56° |
| 2026-05-06 15:30 | 43.45082 | 7.04092 | 33856 ft | 522 kts | 56° |
| 2026-05-06 15:31 | 43.49313 | 7.12223 | 33851 ft | 523 kts | 56° |
| 2026-05-06 15:31 | 43.53577 | 7.20429 | 33826 ft | 523 kts | 56° |
| 2026-05-06 15:32 | 43.59937 | 7.32680 | 33825 ft | 523 kts | 56° |
| 2026-05-06 15:32 | 43.64159 | 7.40850 | 33826 ft | 523 kts | 56° |
| 2026-05-06 15:33 | 43.68384 | 7.49047 | 33828 ft | 523 kts | 56° |
| 2026-05-06 15:33 | 43.72600 | 7.57247 | 33826 ft | 523 kts | 56° |
| 2026-05-06 15:34 | 43.76684 | 7.65219 | 33828 ft | 523 kts | 56° |
| 2026-05-06 15:34 | 43.80967 | 7.73366 | 33834 ft | 523 kts | 51° |
| 2026-05-06 15:35 | 43.86296 | 7.80195 | 33837 ft | 523 kts | 37° |
| 2026-05-06 15:35 | 43.91920 | 7.86576 | 33826 ft | 523 kts | 48° |
| 2026-05-06 15:36 | 43.94107 | 7.90582 | 33828 ft | 519 kts | 63° |
| 2026-05-06 15:36 | 43.95567 | 7.95103 | 33824 ft | 510 kts | 78° |
| 2026-05-06 15:36 | 43.96706 | 8.04749 | 33821 ft | 503 kts | 88° |
| 2026-05-06 15:37 | 43.97621 | 8.14372 | 33816 ft | 503 kts | 88° |
| 2026-05-06 15:37 | 43.98536 | 8.23962 | 33817 ft | 504 kts | 88° |
| 2026-05-06 15:38 | 43.99459 | 8.33669 | 33818 ft | 504 kts | 88° |
| 2026-05-06 15:38 | 44.00371 | 8.43332 | 33818 ft | 505 kts | 88° |
| 2026-05-06 15:39 | 44.01259 | 8.52998 | 33827 ft | 505 kts | 89° |
| 2026-05-06 15:39 | 44.02145 | 8.62680 | 33839 ft | 505 kts | 89° |
| 2026-05-06 15:40 | 44.03027 | 8.72375 | 33844 ft | 506 kts | 89° |
| 2026-05-06 15:40 | 44.03899 | 8.82070 | 33850 ft | 506 kts | 89° |
| 2026-05-06 15:41 | 44.04768 | 8.91795 | 33854 ft | 506 kts | 89° |
| 2026-05-06 15:41 | 44.05618 | 9.01507 | 33859 ft | 506 kts | 89° |
| 2026-05-06 15:42 | 44.06460 | 9.11212 | 33869 ft | 506 kts | 89° |
| 2026-05-06 15:42 | 44.07314 | 9.20986 | 33876 ft | 505 kts | 89° |
| 2026-05-06 15:43 | 44.08160 | 9.30669 | 33890 ft | 504 kts | 89° |
| 2026-05-06 15:43 | 44.08982 | 9.40343 | 33892 ft | 504 kts | 89° |
| 2026-05-06 15:44 | 44.09785 | 9.50020 | 32770 ft | 507 kts | 89° |
| 2026-05-06 15:44 | 44.10184 | 9.54936 | 31514 ft | 515 kts | 89° |
| 2026-05-06 15:44 | 44.10590 | 9.59915 | 30379 ft | 520 kts | 89° |
| 2026-05-06 15:45 | 44.11001 | 9.64923 | 29130 ft | 523 kts | 89° |
| 2026-05-06 15:45 | 44.11416 | 9.69965 | 27868 ft | 525 kts | 88° |
| 2026-05-06 15:45 | 44.11697 | 9.73371 | 27374 ft | 520 kts | 88° |
| 2026-05-06 15:45 | 44.12106 | 9.78343 | 26717 ft | 515 kts | 88° |
| 2026-05-06 15:46 | 44.12509 | 9.83269 | 26083 ft | 511 kts | 88° |
| 2026-05-06 15:46 | 44.12907 | 9.88167 | 25448 ft | 506 kts | 87° |
| 2026-05-06 15:46 | 44.13295 | 9.92992 | 24863 ft | 501 kts | 87° |
| 2026-05-06 15:46 | 44.13677 | 9.97798 | 24272 ft | 496 kts | 87° |
| 2026-05-06 15:47 | 44.14049 | 10.02550 | 23692 ft | 492 kts | 87° |
| 2026-05-06 15:47 | 44.14416 | 10.07273 | 23047 ft | 487 kts | 87° |
| 2026-05-06 15:47 | 44.14776 | 10.11927 | 22374 ft | 481 kts | 87° |
| 2026-05-06 15:47 | 44.15135 | 10.16526 | 21728 ft | 476 kts | 87° |
| 2026-05-06 15:48 | 44.15486 | 10.21076 | 21079 ft | 471 kts | 87° |
| 2026-05-06 15:48 | 44.15834 | 10.25598 | 20446 ft | 466 kts | 86° |
| 2026-05-06 15:48 | 44.16126 | 10.30067 | 19880 ft | 459 kts | 91° |
| 2026-05-06 15:48 | 44.15909 | 10.34448 | 19406 ft | 450 kts | 103° |
| 2026-05-06 15:49 | 44.15109 | 10.38616 | 18932 ft | 440 kts | 115° |
| 2026-05-06 15:49 | 44.13833 | 10.42438 | 18459 ft | 433 kts | 122° |
| 2026-05-06 15:49 | 44.12455 | 10.46128 | 17967 ft | 425 kts | 122° |
| 2026-05-06 15:49 | 44.11105 | 10.49759 | 17431 ft | 419 kts | 122° |
| 2026-05-06 15:50 | 44.09776 | 10.53330 | 16910 ft | 411 kts | 122° |
| 2026-05-06 15:50 | 44.08473 | 10.56819 | 16394 ft | 402 kts | 122° |
| 2026-05-06 15:50 | 44.07193 | 10.60231 | 15894 ft | 393 kts | 122° |
| 2026-05-06 15:50 | 44.05926 | 10.63600 | 15384 ft | 383 kts | 123° |
| 2026-05-06 15:51 | 44.04704 | 10.66840 | 14894 ft | 373 kts | 123° |
| 2026-05-06 15:51 | 44.03512 | 10.69985 | 14423 ft | 363 kts | 124° |
| 2026-05-06 15:51 | 44.02052 | 10.72713 | 13941 ft | 344 kts | 142° |
| 2026-05-06 15:51 | 44.00164 | 10.74578 | 13430 ft | 326 kts | 158° |
| 2026-05-06 15:52 | 43.98155 | 10.75979 | 12892 ft | 319 kts | 159° |
| 2026-05-06 15:52 | 43.96193 | 10.77338 | 12376 ft | 313 kts | 159° |
| 2026-05-06 15:52 | 43.94264 | 10.78674 | 11857 ft | 307 kts | 159° |
| 2026-05-06 15:52 | 43.92374 | 10.79986 | 11343 ft | 301 kts | 159° |
| 2026-05-06 15:53 | 43.90505 | 10.81284 | 10697 ft | 299 kts | 159° |
| 2026-05-06 15:53 | 43.88663 | 10.82565 | 10069 ft | 294 kts | 159° |
| 2026-05-06 15:53 | 43.86846 | 10.83828 | 9397 ft | 290 kts | 159° |
| 2026-05-06 15:53 | 43.85049 | 10.85070 | 8710 ft | 287 kts | 159° |
| 2026-05-06 15:54 | 43.83273 | 10.86295 | 8044 ft | 283 kts | 158° |
| 2026-05-06 15:54 | 43.81523 | 10.87503 | 7386 ft | 279 kts | 158° |
| 2026-05-06 15:54 | 43.79798 | 10.88693 | 6776 ft | 275 kts | 158° |
| 2026-05-06 15:54 | 43.78148 | 10.89839 | 6619 ft | 256 kts | 158° |
| 2026-05-06 15:55 | 43.76581 | 10.90927 | 6374 ft | 249 kts | 158° |
| 2026-05-06 15:55 | 43.75016 | 10.92009 | 6042 ft | 246 kts | 158° |
| 2026-05-06 15:55 | 43.73495 | 10.93059 | 5746 ft | 243 kts | 158° |
| 2026-05-06 15:55 | 43.72010 | 10.94083 | 5424 ft | 241 kts | 158° |
| 2026-05-06 15:56 | 43.70512 | 10.95113 | 5079 ft | 240 kts | 158° |
| 2026-05-06 15:56 | 43.69008 | 10.96149 | 4732 ft | 237 kts | 157° |
| 2026-05-06 15:56 | 43.67785 | 10.97613 | 4376 ft | 243 kts | 124° |
| 2026-05-06 15:56 | 43.67450 | 10.99918 | 4018 ft | 249 kts | 83° |
| 2026-05-06 15:57 | 43.68162 | 11.02056 | 3679 ft | 246 kts | 53° |
| 2026-05-06 15:57 | 43.69310 | 11.03783 | 3323 ft | 242 kts | 43° |
| 2026-05-06 15:57 | 43.70534 | 11.05347 | 2959 ft | 238 kts | 41° |
| 2026-05-06 15:57 | 43.71736 | 11.06878 | 2644 ft | 231 kts | 41° |
| 2026-05-06 15:58 | 43.72877 | 11.08399 | 2349 ft | 223 kts | 45° |
| 2026-05-06 15:58 | 43.73932 | 11.09873 | 2098 ft | 206 kts | 46° |
| 2026-05-06 15:58 | 43.74865 | 11.11224 | 2004 ft | 181 kts | 46° |
| 2026-05-06 15:58 | 43.75678 | 11.12424 | 2001 ft | 163 kts | 45° |
| 2026-05-06 15:59 | 43.76467 | 11.13548 | 1935 ft | 163 kts | 47° |
| 2026-05-06 15:59 | 43.77248 | 11.14659 | 1671 ft | 159 kts | 49° |
| 2026-05-06 15:59 | 43.77984 | 11.15762 | 1344 ft | 154 kts | 50° |
| 2026-05-06 15:59 | 43.78696 | 11.16846 | 1003 ft | 148 kts | 49° |
| 2026-05-06 16:00 | 43.79356 | 11.17924 | 734 ft | 147 kts | 51° |
| 2026-05-06 16:00 | 43.80027 | 11.18999 | 369 ft | 148 kts | 43° |
| 2026-05-06 16:00 | 43.80716 | 11.20086 | 152 ft | 151 kts | 46° |